createdAt,value
2023-01-17T00:01:11.443Z,7.90
2023-01-17T00:03:57.992Z,7.10
2023-01-17T00:06:43.523Z,7.80
2023-01-17T00:09:32.908Z,6.72
2023-01-17T00:12:03.379Z,6.85
2023-01-17T00:14:49.706Z,6.80
2023-01-17T00:17:16.252Z,6.97
2023-01-17T00:20:01.246Z,7.13
2023-01-17T00:22:47.635Z,6.18
2023-01-17T00:25:34.234Z,6.82
2023-01-17T00:28:34.927Z,6.53
2023-01-17T00:31:01.714Z,6.32
2023-01-17T00:33:28.417Z,6.20
2023-01-17T00:35:56.465Z,6.65
2023-01-17T00:38:24.137Z,7.10
2023-01-17T00:40:50.596Z,6.28
2023-01-17T00:43:36.944Z,6.00
2023-01-17T00:46:22.879Z,6.80
2023-01-17T00:49:07.746Z,7.20
2023-01-17T00:51:53.185Z,6.18
2023-01-17T00:54:38.331Z,7.07
2023-01-17T00:57:23.803Z,6.97
2023-01-17T01:00:08.769Z,6.15
2023-01-17T01:02:53.629Z,6.43
2023-01-17T01:05:39.008Z,5.97
2023-01-17T01:08:36.314Z,5.72
2023-01-17T01:11:23.436Z,5.45
2023-01-17T01:14:08.535Z,5.28
2023-01-17T01:16:53.526Z,5.18
2023-01-17T01:19:38.398Z,4.93
2023-01-17T01:22:23.650Z,4.75
2023-01-17T01:25:08.801Z,5.25
2023-01-17T01:27:53.986Z,5.38
2023-01-17T01:30:39.127Z,4.35
2023-01-17T01:33:18.660Z,3.70
2023-01-17T01:35:46.528Z,4.15
2023-01-17T01:38:13.094Z,4.15
2023-01-17T01:40:43.916Z,4.60
2023-01-17T01:43:12.089Z,4.65
2023-01-17T01:45:38.834Z,5.00
2023-01-17T01:48:31.674Z,5.00
2023-01-17T01:50:58.779Z,4.93
2023-01-17T01:53:26.032Z,5.10
2023-01-17T01:55:53.071Z,5.28
2023-01-17T01:58:21.790Z,5.65
2023-01-17T02:00:48.489Z,5.65
2023-01-17T02:03:17.396Z,5.28
2023-01-17T02:05:44.149Z,5.90
2023-01-17T02:08:15.438Z,5.40
2023-01-17T02:10:42.384Z,5.43
2023-01-17T02:13:09.429Z,6.22
2023-01-17T02:15:49.502Z,5.60
2023-01-17T02:18:15.992Z,5.82
2023-01-17T02:20:58.777Z,5.63
2023-01-17T02:23:27.982Z,6.00
2023-01-17T02:26:00.263Z,5.50
2023-01-17T02:28:49.527Z,5.03
2023-01-17T02:31:31.580Z,5.95
2023-01-17T02:34:06.922Z,6.05
2023-01-17T02:36:36.382Z,5.75
2023-01-17T02:39:22.663Z,5.75
2023-01-17T02:41:52.482Z,6.65
2023-01-17T02:44:20.084Z,6.25
2023-01-17T02:46:47.160Z,5.60
2023-01-17T02:49:14.410Z,4.90
2023-01-17T02:52:01.140Z,5.63
2023-01-17T02:54:35.158Z,5.15
2023-01-17T02:57:18.427Z,5.43
2023-01-17T03:00:03.706Z,5.35
2023-01-17T03:02:48.908Z,4.75
2023-01-17T03:05:15.422Z,5.18
2023-01-17T03:07:44.344Z,4.93
2023-01-17T03:10:11.934Z,5.15
2023-01-17T03:12:39.826Z,4.70
2023-01-17T03:15:13.667Z,4.38
2023-01-17T03:17:42.606Z,4.90
2023-01-17T03:20:09.521Z,3.92
2023-01-17T03:22:35.998Z,4.68
2023-01-17T03:25:02.410Z,4.22
2023-01-17T03:27:28.859Z,4.07
2023-01-17T03:29:55.353Z,4.30
2023-01-17T03:32:21.833Z,4.15
2023-01-17T03:34:48.360Z,4.03
2023-01-17T03:37:14.797Z,4.53
2023-01-17T03:39:41.225Z,3.95
2023-01-17T03:42:07.911Z,4.00
2023-01-17T03:44:34.523Z,4.40
2023-01-17T03:47:01.030Z,4.97
2023-01-17T03:49:27.460Z,6.85
2023-01-17T03:51:53.918Z,4.90
2023-01-17T03:54:20.401Z,4.93
2023-01-17T03:56:46.834Z,5.38
2023-01-17T03:59:13.450Z,5.25
2023-01-17T04:01:39.977Z,5.55
2023-01-17T04:04:06.471Z,6.30
2023-01-17T04:06:32.932Z,5.22
2023-01-17T04:08:59.370Z,5.50
2023-01-17T04:11:25.847Z,4.47
2023-01-17T04:13:52.353Z,4.70
2023-01-17T04:16:19.104Z,3.95
2023-01-17T04:18:45.595Z,4.80
2023-01-17T04:21:12.058Z,3.40
2023-01-17T04:23:38.741Z,4.68
2023-01-17T04:26:05.556Z,3.90
2023-01-17T04:28:32.080Z,4.63
2023-01-17T04:30:59.455Z,4.15
2023-01-17T04:33:25.908Z,5.03
2023-01-17T04:35:52.876Z,4.72
2023-01-17T04:38:19.695Z,4.55
2023-01-17T04:40:46.248Z,4.72
2023-01-17T04:43:12.752Z,4.60
2023-01-17T04:45:39.299Z,5.03
2023-01-17T04:48:06.066Z,4.75
2023-01-17T04:50:32.927Z,4.03
2023-01-17T04:52:59.772Z,4.47
2023-01-17T04:55:26.440Z,4.57
2023-01-17T04:57:52.895Z,4.15
2023-01-17T05:00:19.640Z,4.20
2023-01-17T05:02:46.182Z,4.82
2023-01-17T05:05:13.510Z,5.50
2023-01-17T05:07:40.051Z,5.60
2023-01-17T05:10:06.808Z,4.95
2023-01-17T05:12:33.238Z,6.70
2023-01-17T05:14:59.779Z,6.10
2023-01-17T05:17:26.280Z,6.30
2023-01-17T05:19:52.836Z,5.75
2023-01-17T05:22:19.283Z,4.22
2023-01-17T05:24:46.765Z,5.40
2023-01-17T05:27:13.793Z,4.78
2023-01-17T05:29:40.656Z,3.58
2023-01-17T05:32:07.224Z,3.35
2023-01-17T05:34:34.277Z,3.47
2023-01-17T05:37:00.804Z,3.70
2023-01-17T05:39:27.320Z,3.63
2023-01-17T05:41:53.765Z,3.30
2023-01-17T05:44:20.232Z,3.20
2023-01-17T05:46:56.359Z,3.25
2023-01-17T05:49:22.889Z,3.33
2023-01-17T05:51:49.498Z,3.22
2023-01-17T05:54:16.124Z,3.45
2023-01-17T05:56:42.563Z,6.25
2023-01-17T05:59:09.099Z,8.20
2023-01-17T06:01:35.560Z,7.20
2023-01-17T06:04:02.010Z,4.38
2023-01-17T06:06:28.497Z,4.20
2023-01-17T06:08:54.979Z,4.72
2023-01-17T06:11:21.480Z,4.65
2023-01-17T06:13:48.813Z,4.68
2023-01-17T06:16:15.356Z,4.47
2023-01-17T06:18:41.890Z,4.10
2023-01-17T06:21:08.358Z,3.95
2023-01-17T06:23:34.848Z,4.45
2023-01-17T06:26:04.528Z,5.45
2023-01-17T06:28:31.223Z,4.22
2023-01-17T06:34:29.350Z,3.60
2023-01-17T06:36:55.933Z,4.03
2023-01-17T06:39:22.450Z,3.65
2023-01-17T06:41:48.983Z,9.38
2023-01-17T06:44:15.420Z,8.73
2023-01-17T06:46:41.945Z,3.95
2023-01-17T06:49:08.428Z,3.58
2023-01-17T06:51:34.943Z,2.88
2023-01-17T06:54:01.387Z,2.63
2023-01-17T06:56:30.213Z,2.90
2023-01-17T06:58:56.760Z,4.22
2023-01-17T07:01:23.389Z,3.53
2023-01-17T07:03:50.068Z,4.10
2023-01-17T07:06:16.567Z,3.58
2023-01-17T07:08:43.013Z,2.80
2023-01-17T07:11:09.687Z,2.65
2023-01-17T07:13:38.952Z,2.85
2023-01-17T07:16:06.140Z,2.80
2023-01-17T07:18:33.062Z,2.90
2023-01-17T07:20:59.644Z,3.00
2023-01-17T07:23:26.280Z,3.60
2023-01-17T07:25:57.140Z,4.55
2023-01-17T07:28:24.212Z,5.50
2023-01-17T07:30:51.915Z,5.85
2023-01-17T07:33:18.835Z,4.50
2023-01-17T07:35:45.685Z,5.65
2023-01-17T07:38:19.011Z,4.82
2023-01-17T07:40:46.324Z,5.32
2023-01-17T07:43:16.690Z,5.65
2023-01-17T07:45:43.701Z,4.40
2023-01-17T07:48:10.817Z,5.10
2023-01-17T07:50:37.508Z,4.60
2023-01-17T07:53:04.350Z,4.65
2023-01-17T07:55:31.148Z,5.28
2023-01-17T07:57:57.700Z,5.43
2023-01-17T08:00:27.755Z,5.07
2023-01-17T08:02:57.749Z,4.18
2023-01-17T08:05:24.544Z,3.83
2023-01-17T08:07:51.402Z,3.47
2023-01-17T08:10:18.216Z,2.47
2023-01-17T08:12:45.769Z,3.45
2023-01-17T08:15:12.282Z,6.32
2023-01-17T08:17:39.135Z,9.43
2023-01-17T08:20:06.338Z,11.52
2023-01-17T08:22:32.907Z,13.07
2023-01-17T08:24:59.445Z,17.15
2023-01-17T08:27:25.989Z,17.90
2023-01-17T08:29:52.516Z,18.27
2023-01-17T08:32:19.943Z,18.38
2023-01-17T08:34:46.370Z,15.73
2023-01-17T08:37:13.009Z,10.63
2023-01-17T08:39:39.528Z,8.40
2023-01-17T08:42:06.209Z,7.32
2023-01-17T08:44:32.843Z,4.80
2023-01-17T08:46:59.735Z,3.97
2023-01-17T08:49:26.188Z,4.05
2023-01-17T08:51:52.848Z,4.40
2023-01-17T08:54:19.370Z,4.35
2023-01-17T08:56:47.452Z,3.50
2023-01-17T08:59:14.002Z,3.58
2023-01-17T09:01:45.878Z,3.50
2023-01-17T09:04:12.639Z,5.25
2023-01-17T12:07:09.762Z,15.68
2023-01-17T12:09:45.259Z,15.85
2023-01-17T12:12:42.527Z,16.42
2023-01-17T12:15:17.763Z,15.68
2023-01-17T12:18:05.825Z,15.45
2023-01-17T12:20:51.152Z,14.65
2023-01-17T12:23:32.885Z,15.43
2023-01-17T12:26:03.996Z,15.05
2023-01-17T12:29:00.192Z,11.87
2023-01-17T12:31:46.983Z,14.65
2023-01-17T12:34:13.998Z,15.38
2023-01-17T12:36:48.462Z,16.27
2023-01-17T12:39:16.570Z,17.27
2023-01-17T12:41:58.504Z,17.67
2023-01-17T12:46:57.955Z,17.02
2023-01-17T12:49:24.431Z,17.17
2023-01-17T12:51:54.078Z,17.05
2023-01-17T12:54:27.683Z,15.32
2023-01-17T12:56:56.687Z,15.15
2023-01-17T12:59:46.342Z,15.25
2023-01-17T13:02:20.742Z,16.30
2023-01-17T13:05:10.603Z,15.45
2023-01-17T13:07:40.560Z,16.00
2023-01-17T13:10:29.263Z,16.50
2023-01-17T13:12:59.275Z,16.45
2023-01-17T13:15:28.608Z,15.07
2023-01-17T13:45:17.571Z,14.18
2023-01-17T14:06:47.810Z,16.70
2023-01-17T14:09:29.237Z,15.65
2023-01-17T14:11:57.641Z,19.13
2023-01-17T14:14:42.977Z,49.55
2023-01-17T14:17:29.264Z,32.28
2023-01-17T14:19:57.847Z,71.40
2023-01-17T14:22:25.386Z,31.15
2023-01-17T14:25:00.265Z,28.13
2023-01-17T14:27:27.802Z,28.30
2023-01-17T14:30:03.162Z,25.73
2023-01-17T14:32:31.590Z,23.85
2023-01-17T14:34:58.231Z,52.13
2023-01-17T14:37:29.038Z,296.75
2023-01-17T14:39:55.589Z,415.45
2023-01-17T14:42:23.674Z,150.90
2023-01-17T14:44:52.521Z,32.92
2023-01-17T14:47:19.059Z,21.65
2023-01-17T14:49:45.606Z,19.83
2023-01-17T14:52:17.620Z,15.65
2023-01-17T14:54:49.964Z,14.43
2023-01-17T14:57:27.992Z,13.90
2023-01-17T15:00:11.159Z,14.25
2023-01-17T15:02:42.219Z,14.30
2023-01-17T15:05:11.310Z,14.05
2023-01-17T15:07:38.005Z,14.65
2023-01-17T15:10:04.682Z,15.05
2023-01-17T15:12:31.251Z,16.05
2023-01-17T15:14:59.458Z,16.13
2023-01-17T15:17:26.023Z,17.73
2023-01-17T15:20:01.474Z,17.75
2023-01-17T15:22:29.862Z,16.42
2023-01-17T15:24:57.088Z,17.75
2023-01-17T15:27:24.690Z,17.67
2023-01-17T15:29:51.364Z,14.25
2023-01-17T15:32:19.618Z,14.05
2023-01-17T15:34:48.061Z,14.45
2023-01-17T15:37:29.822Z,14.43
2023-01-17T15:40:07.637Z,12.93
2023-01-17T15:42:36.409Z,12.13
2023-01-17T15:45:04.824Z,14.57
2023-01-17T15:47:32.696Z,15.52
2023-01-17T15:52:28.539Z,19.27
2023-01-17T15:57:39.033Z,14.55
2023-01-17T16:00:20.381Z,10.68
